createdAt,value
2019-01-05T00:01:17.545Z,46.20
2019-01-05T00:03:32.560Z,46.30
2019-01-05T00:05:49.305Z,46.30
2019-01-05T00:08:25.537Z,46.40
2019-01-05T00:10:46.932Z,46.40
2019-01-05T00:13:02.960Z,46.40
2019-01-05T00:15:23.069Z,46.50
2019-01-05T00:17:53.526Z,46.50
2019-01-05T00:20:21.889Z,46.50
2019-01-05T00:22:49.712Z,46.70
2019-01-05T00:25:17.500Z,46.70
2019-01-05T00:27:39.593Z,46.70
2019-01-05T00:30:01.311Z,46.70
2019-01-05T00:32:48.953Z,46.70
2019-01-05T00:35:17.005Z,46.70
2019-01-05T00:37:47.072Z,46.80
2019-01-05T00:40:06.340Z,46.90
2019-01-05T00:42:23.942Z,46.90
2019-01-05T00:44:45.978Z,46.80
2019-01-05T00:47:24.406Z,46.80
2019-01-05T00:49:47.310Z,46.90
2019-01-05T00:52:31.914Z,46.90
2019-01-05T00:55:05.864Z,47.00
2019-01-05T00:57:27.031Z,46.90
2019-01-05T00:59:55.936Z,47.00
2019-01-05T01:02:20.819Z,46.90
2019-01-05T01:04:48.612Z,47.00
2019-01-05T01:07:08.453Z,46.90
2019-01-05T01:09:32.656Z,47.20
2019-01-05T01:11:52.888Z,47.30
2019-01-05T01:14:30.805Z,47.30
2019-01-05T01:17:06.930Z,47.30
2019-01-05T01:19:26.970Z,47.30
2019-01-05T01:21:57.368Z,47.30
2019-01-05T01:24:17.430Z,47.30
2019-01-05T01:26:30.900Z,47.20
2019-01-05T01:28:50.877Z,47.30
2019-01-05T01:31:30.224Z,47.30
2019-01-05T01:33:53.157Z,47.50
2019-01-05T01:36:14.692Z,47.50
2019-01-05T01:39:15.702Z,47.50
2019-01-05T01:41:58.344Z,47.50
2019-01-05T01:44:37.694Z,47.60
2019-01-05T01:47:05.132Z,47.60
2019-01-05T01:49:39.971Z,47.70
2019-01-05T01:52:20.093Z,47.70
2019-01-05T01:54:45.357Z,47.80
2019-01-05T01:57:12.210Z,47.70
2019-01-05T02:00:11.972Z,47.70
2019-01-05T02:02:50.105Z,47.70
2019-01-05T02:05:19.837Z,47.70
2019-01-05T02:07:48.868Z,47.70
2019-01-05T02:10:17.079Z,47.80
2019-01-05T02:12:43.273Z,47.80
2019-01-05T02:15:10.376Z,47.90
2019-01-05T02:17:43.308Z,47.80
2019-01-05T02:20:20.013Z,47.80
2019-01-05T02:23:08.776Z,48.00
2019-01-05T02:25:39.277Z,48.00
2019-01-05T02:28:36.074Z,48.10
2019-01-05T02:31:26.440Z,48.10
2019-01-05T02:34:29.064Z,48.10
2019-01-05T02:37:49.131Z,48.10
2019-01-05T02:40:59.612Z,48.10
2019-01-05T02:44:05.290Z,48.10
2019-01-05T02:46:56.436Z,48.10
2019-01-05T02:49:37.193Z,48.10
2019-01-05T02:52:40.753Z,48.10
2019-01-05T02:55:40.870Z,48.30
2019-01-05T02:58:53.578Z,48.30
2019-01-05T03:02:06.397Z,48.30
2019-01-05T03:04:45.351Z,48.30
2019-01-05T03:07:47.287Z,48.40
2019-01-05T03:10:46.460Z,48.40
2019-01-05T03:13:56.814Z,48.50
2019-01-05T03:17:11.561Z,48.40
2019-01-05T03:20:15.556Z,48.50
2019-01-05T03:23:08.980Z,48.50
2019-01-05T03:26:07.053Z,48.50
2019-01-05T03:28:47.361Z,48.60
2019-01-05T03:32:18.806Z,48.50
2019-01-05T03:35:01.522Z,48.50
2019-01-05T03:37:47.561Z,48.60
2019-01-05T03:40:28.630Z,48.60
2019-01-05T03:43:25.510Z,48.60
2019-01-05T03:46:34.070Z,48.70
2019-01-05T03:49:42.431Z,48.70
2019-01-05T03:52:36.300Z,48.60
2019-01-05T03:55:34.590Z,48.80
2019-01-05T03:58:42.384Z,48.70
2019-01-05T04:02:06.685Z,48.70
2019-01-05T04:05:03.820Z,48.80
2019-01-05T04:07:53.286Z,48.70
2019-01-05T04:11:02.442Z,48.70
2019-01-05T04:13:56.571Z,48.70
2019-01-05T04:17:14.197Z,48.70
2019-01-05T04:20:16.012Z,48.70
2019-01-05T04:23:15.592Z,48.70
2019-01-05T04:26:04.032Z,48.70
2019-01-05T04:28:59.931Z,48.80
2019-01-05T04:32:14.145Z,48.80
2019-01-05T04:35:31.488Z,48.70
2019-01-05T04:38:35.468Z,48.80
2019-01-05T04:41:47.062Z,48.80
2019-01-05T04:44:46.069Z,48.80
2019-01-05T04:47:35.696Z,48.90
2019-01-05T04:50:35.763Z,48.90
2019-01-05T04:53:41.962Z,48.90
2019-01-05T04:56:49.788Z,49.00
2019-01-05T04:59:54.398Z,49.00
2019-01-05T05:02:55.725Z,49.10
2019-01-05T05:06:03.269Z,49.10
2019-01-05T05:09:07.681Z,49.10
2019-01-05T05:12:13.528Z,49.20
2019-01-05T05:15:03.513Z,49.30
2019-01-05T05:17:50.971Z,49.20
2019-01-05T05:20:47.846Z,49.20
2019-01-05T05:23:53.664Z,49.30
2019-01-05T05:27:14.081Z,49.30
2019-01-05T05:30:17.842Z,49.30
2019-01-05T05:33:19.117Z,49.20
2019-01-05T05:36:11.223Z,49.30
2019-01-05T05:39:12.437Z,49.20
2019-01-05T05:42:21.876Z,49.30
2019-01-05T05:45:30.335Z,49.40
2019-01-05T05:48:24.884Z,49.40
2019-01-05T05:51:11.353Z,49.40
2019-01-05T05:54:13.147Z,49.50
2019-01-05T05:57:14.723Z,49.50
2019-01-05T06:00:26.377Z,49.40
2019-01-05T06:03:18.013Z,49.50
2019-01-05T06:06:18.104Z,49.50
2019-01-05T06:09:05.851Z,49.60
2019-01-05T06:12:00.708Z,49.40
2019-01-05T06:15:40.673Z,49.50
2019-01-05T06:18:31.981Z,49.50
2019-01-05T06:21:36.229Z,49.60
2019-01-05T06:24:36.413Z,49.70
2019-01-05T06:27:34.469Z,49.80
2019-01-05T06:31:00.697Z,49.80
2019-01-05T06:33:48.165Z,49.80
2019-01-05T06:37:04.915Z,49.90
2019-01-05T06:40:06.136Z,49.80
2019-01-05T06:43:11.269Z,49.70
2019-01-05T06:46:28.696Z,49.70
2019-01-05T06:49:29.253Z,49.70
2019-01-05T06:52:38.036Z,49.70
2019-01-05T06:55:30.310Z,49.70
2019-01-05T06:58:21.357Z,49.60
2019-01-05T07:01:26.051Z,49.70
2019-01-05T07:04:13.820Z,49.80
2019-01-05T07:07:09.697Z,49.80
2019-01-05T07:10:24.870Z,49.70
2019-01-05T07:13:34.384Z,49.80
2019-01-05T07:16:29.428Z,49.80
2019-01-05T07:19:36.905Z,49.90
2019-01-05T07:22:30.388Z,49.80
2019-01-05T07:25:40.797Z,49.80
2019-01-05T07:28:55.524Z,49.80
2019-01-05T07:31:44.953Z,49.90
2019-01-05T07:34:53.514Z,49.90
2019-01-05T07:38:03.858Z,49.90
2019-01-05T07:41:07.737Z,49.90
2019-01-05T07:44:01.102Z,50.00
2019-01-05T07:46:49.374Z,49.90
2019-01-05T07:50:00.954Z,49.90
2019-01-05T07:52:51.781Z,49.90
2019-01-05T07:55:48.341Z,49.90
2019-01-05T07:58:36.758Z,49.90
2019-01-05T08:01:25.885Z,49.90
2019-01-05T08:04:20.928Z,49.80
2019-01-05T08:07:33.705Z,50.00
2019-01-05T08:10:37.016Z,49.90
2019-01-05T08:13:43.090Z,49.90
2019-01-05T08:16:48.017Z,50.00
2019-01-05T08:19:55.847Z,50.00
2019-01-05T08:23:00.194Z,50.00
2019-01-05T08:26:08.128Z,50.00
2019-01-05T08:29:04.955Z,50.00
2019-01-05T08:32:00.982Z,50.00
2019-01-05T08:34:52.180Z,50.10
2019-01-05T08:37:56.194Z,50.10
2019-01-05T08:41:00.901Z,50.00
2019-01-05T08:44:19.956Z,50.10
2019-01-05T08:47:17.037Z,50.10
2019-01-05T08:50:20.505Z,50.20
2019-01-05T08:53:31.084Z,50.20
2019-01-05T08:56:39.210Z,50.20
2019-01-05T08:59:35.289Z,50.20
2019-01-05T09:02:33.886Z,50.30
2019-01-05T09:05:44.482Z,50.30
2019-01-05T09:09:03.093Z,50.30
2019-01-05T09:11:54.546Z,50.30
2019-01-05T09:15:10.222Z,50.30
2019-01-05T09:18:40.037Z,50.30
2019-01-05T09:22:02.609Z,50.40
2019-01-05T09:25:19.243Z,50.40
2019-01-05T09:28:12.062Z,50.50
2019-01-05T09:31:13.227Z,50.40
2019-01-05T09:34:05.946Z,50.50
2019-01-05T09:37:13.044Z,50.50
2019-01-05T09:40:03.357Z,50.70
2019-01-05T09:43:17.347Z,50.90
2019-01-05T09:46:08.317Z,51.00
2019-01-05T09:49:04.902Z,51.10
2019-01-05T09:52:07.614Z,51.10
2019-01-05T09:55:09.916Z,51.00
2019-01-05T09:58:15.150Z,50.90
2019-01-05T10:01:31.023Z,51.00
2019-01-05T10:04:34.674Z,50.90
2019-01-05T10:07:32.107Z,51.00
2019-01-05T10:10:32.369Z,50.90
2019-01-05T10:13:43.620Z,51.00
2019-01-05T10:16:29.241Z,50.90
2019-01-05T10:19:34.380Z,51.00
2019-01-05T10:22:44.500Z,51.00
2019-01-05T10:25:54.641Z,51.00
2019-01-05T10:28:56.637Z,51.10
2019-01-05T10:32:09.596Z,51.20
2019-01-05T10:35:10.592Z,51.20
2019-01-05T10:38:08.077Z,51.30
2019-01-05T10:41:17.049Z,51.60
2019-01-05T10:44:26.746Z,51.40
2019-01-05T10:47:24.077Z,51.70
2019-01-05T10:50:18.933Z,51.70
2019-01-05T10:53:05.863Z,51.70
2019-01-05T10:56:20.358Z,51.80
2019-01-05T10:59:17.374Z,52.10
2019-01-05T11:02:39.770Z,51.90
2019-01-05T11:21:59.961Z,52.20
2019-01-05T11:25:08.456Z,52.30
2019-01-05T11:28:05.346Z,52.50
2019-01-05T11:30:49.625Z,52.40
2019-01-05T11:33:51.864Z,52.10
2019-01-05T11:37:09.470Z,52.10
2019-01-05T11:40:23.879Z,52.50
2019-01-05T11:43:00.939Z,52.50
2019-01-05T11:46:07.783Z,52.60
2019-01-05T11:49:10.525Z,52.80
2019-01-05T11:52:11.297Z,53.00
2019-01-05T11:55:18.783Z,53.30
2019-01-05T11:58:09.332Z,53.30
2019-01-05T12:01:32.334Z,53.10
2019-01-05T12:04:33.134Z,53.10
2019-01-05T12:08:00.141Z,53.10
2019-01-05T12:11:13.291Z,53.30
2019-01-05T12:14:35.914Z,53.50
2019-01-05T12:17:39.322Z,53.80
2019-01-05T12:20:34.774Z,53.30
2019-01-05T12:23:29.063Z,53.50
2019-01-05T12:26:40.568Z,53.40
2019-01-05T12:30:05.941Z,53.80
2019-01-05T12:33:18.246Z,53.90
2019-01-05T12:36:17.075Z,54.10
2019-01-05T12:39:14.611Z,54.40
2019-01-05T12:42:11.955Z,54.60
2019-01-05T12:45:10.193Z,54.50
2019-01-05T12:48:06.603Z,54.50
2019-01-05T12:51:12.449Z,54.50
2019-01-05T12:54:13.628Z,54.90
2019-01-05T12:57:06.155Z,54.90
2019-01-05T13:00:02.793Z,55.20
2019-01-05T13:03:09.823Z,54.90
2019-01-05T13:06:21.192Z,54.90
2019-01-05T13:09:37.988Z,55.00
2019-01-05T13:12:47.951Z,54.90
2019-01-05T13:15:48.107Z,55.90
2019-01-05T13:19:06.068Z,56.40
2019-01-05T13:22:13.570Z,56.50
2019-01-05T13:25:17.457Z,57.50
2019-01-05T13:28:34.809Z,58.10
2019-01-05T13:37:00.306Z,56.20
2019-01-05T13:40:04.161Z,56.00
2019-01-05T13:43:02.090Z,56.00
2019-01-05T13:46:04.165Z,55.60
2019-01-05T13:49:07.957Z,55.20
2019-01-05T13:52:23.677Z,55.60
2019-01-05T13:55:28.222Z,55.90
2019-01-05T14:22:58.549Z,55.80
2019-01-05T14:25:32.340Z,56.20
2019-01-05T14:27:50.554Z,56.00
2019-01-05T14:38:56.139Z,56.30
2019-01-05T14:41:15.519Z,56.20
2019-01-05T14:43:37.554Z,55.90
2019-01-05T14:46:01.941Z,55.80
2019-01-05T14:53:59.533Z,55.90
2019-01-05T15:00:24.802Z,55.80
2019-01-05T15:06:20.457Z,55.60
2019-01-05T15:08:40.429Z,55.60
2019-01-05T15:11:28.119Z,55.60
2019-01-05T15:14:07.227Z,55.80
2019-01-05T15:16:46.802Z,55.90
2019-01-05T15:19:13.732Z,56.00
2019-01-05T15:25:26.583Z,55.20
2019-01-05T15:30:12.690Z,55.20
2019-01-05T15:48:45.564Z,55.60
2019-01-05T15:51:01.709Z,55.60
2019-01-05T15:53:21.489Z,55.50
2019-01-05T16:02:54.973Z,55.40
2019-01-05T16:12:34.330Z,55.10
2019-01-05T16:15:59.793Z,54.90
2019-01-05T16:28:08.312Z,54.50
2019-01-05T16:36:01.330Z,54.70
2019-01-05T16:38:22.467Z,54.80
2019-01-05T16:40:55.586Z,54.80
2019-01-05T16:43:15.749Z,54.70
2019-01-05T16:45:40.017Z,54.70
2019-01-05T16:48:19.492Z,54.90
2019-01-05T16:50:52.198Z,55.00
2019-01-05T16:53:17.250Z,55.10
2019-01-05T16:55:44.310Z,55.00
2019-01-05T16:58:11.517Z,55.10
2019-01-05T17:30:03.960Z,55.50
2019-01-05T17:33:20.098Z,55.80
2019-01-05T17:43:14.876Z,55.90
2019-01-05T17:46:14.250Z,55.60
2019-01-05T17:48:47.659Z,55.50
2019-01-05T17:51:12.274Z,55.50
2019-01-05T17:53:52.262Z,55.30
2019-01-05T17:56:22.966Z,55.30
2019-01-05T17:58:56.723Z,55.50
2019-01-05T18:01:34.717Z,55.70
2019-01-05T18:03:57.041Z,55.60
2019-01-05T18:06:12.398Z,55.60
2019-01-05T18:08:32.993Z,55.40
2019-01-05T18:10:53.217Z,55.50
2019-01-05T18:13:23.658Z,55.30
2019-01-05T18:15:43.618Z,55.30
2019-01-05T18:18:13.842Z,55.20
2019-01-05T18:20:38.448Z,55.10
2019-01-05T18:23:09.788Z,55.20
2019-01-05T18:25:25.263Z,55.40
2019-01-05T18:27:54.410Z,55.30
2019-01-05T18:30:16.775Z,55.60
2019-01-05T18:32:40.920Z,55.80
2019-01-05T18:35:00.196Z,55.60
2019-01-05T18:37:34.767Z,55.50
2019-01-05T18:39:54.637Z,55.30
2019-01-05T18:42:21.988Z,55.30
2019-01-05T18:44:42.248Z,55.30
2019-01-05T18:47:01.596Z,55.30
2019-01-05T18:49:22.752Z,55.00
2019-01-05T18:52:02.078Z,55.10
2019-01-05T18:54:22.492Z,54.90
2019-01-05T18:56:42.761Z,54.90
2019-01-05T18:59:22.196Z,54.90
2019-01-05T19:01:42.268Z,54.90
2019-01-05T19:04:02.461Z,54.80
2019-01-05T19:06:54.398Z,54.90
2019-01-05T19:09:27.349Z,54.90
2019-01-05T19:11:47.718Z,55.00
2019-01-05T19:14:07.661Z,55.10
2019-01-05T19:16:27.613Z,55.40
2019-01-05T19:18:46.679Z,55.50
2019-01-05T19:21:30.251Z,55.10
2019-01-05T19:23:50.424Z,55.10
2019-01-05T19:25:59.946Z,55.00
2019-01-05T19:28:24.361Z,54.90
2019-01-05T19:30:48.600Z,54.90
2019-01-05T19:33:10.980Z,54.70
2019-01-05T19:35:38.021Z,54.60
2019-01-05T19:37:55.150Z,54.70
2019-01-05T19:40:14.792Z,54.90
2019-01-05T19:42:34.676Z,55.00
2019-01-05T19:48:06.879Z,55.00
2019-01-05T19:50:48.714Z,55.20
2019-01-05T19:53:39.542Z,55.10
2019-01-05T19:56:05.279Z,55.20
2019-01-05T19:58:27.024Z,55.10
2019-01-05T20:00:51.367Z,55.30
2019-01-05T20:03:07.954Z,55.10
2019-01-05T20:05:29.498Z,55.00
2019-01-05T20:07:54.034Z,54.90
2019-01-05T20:10:14.070Z,54.80
2019-01-05T20:18:12.276Z,55.00
2019-01-05T20:20:36.579Z,55.10
2019-01-05T20:23:51.833Z,54.90
2019-01-05T20:26:27.807Z,54.80
2019-01-05T20:28:52.002Z,54.90
2019-01-05T20:32:03.029Z,54.80
2019-01-05T20:37:50.664Z,54.80
2019-01-05T20:40:32.925Z,54.80
2019-01-05T20:43:14.269Z,54.50
2019-01-05T20:45:51.872Z,54.70
2019-01-05T20:48:06.753Z,54.50
2019-01-05T20:50:36.134Z,54.60
2019-01-05T20:52:56.397Z,54.70
2019-01-05T20:55:13.369Z,54.70
2019-01-05T20:57:40.390Z,54.80
2019-01-05T21:00:00.785Z,54.80
2019-01-05T21:02:25.105Z,54.80
2019-01-05T21:04:53.681Z,54.80
2019-01-05T21:07:15.119Z,54.70
2019-01-05T21:09:34.905Z,54.80
2019-01-05T21:12:02.174Z,54.80
2019-01-05T21:14:22.116Z,54.80
2019-01-05T21:16:42.144Z,54.70
2019-01-05T21:19:21.660Z,54.70
2019-01-05T21:21:43.348Z,54.90
2019-01-05T21:23:58.821Z,55.10
2019-01-05T21:26:27.188Z,55.30
2019-01-05T21:28:47.419Z,55.20
2019-01-05T21:31:23.921Z,55.20
2019-01-05T21:33:54.382Z,55.30
2019-01-05T21:36:14.481Z,55.70
2019-01-05T21:38:34.547Z,55.60
2019-01-05T21:40:54.752Z,55.80
2019-01-05T21:43:22.130Z,55.90
2019-01-05T21:45:42.047Z,55.80
2019-01-05T21:48:02.437Z,55.90
2019-01-05T21:50:22.829Z,55.80
2019-01-05T21:52:47.282Z,55.90
2019-01-05T21:55:10.867Z,56.20
2019-01-05T21:57:30.253Z,56.20
2019-01-05T21:59:54.087Z,56.00
2019-01-05T22:02:15.783Z,56.00
2019-01-05T22:04:39.713Z,56.00
2019-01-05T22:06:59.970Z,56.00
2019-01-05T22:09:20.584Z,56.30
2019-01-05T22:11:48.057Z,56.30
2019-01-05T22:14:15.605Z,56.30
2019-01-05T22:16:52.185Z,56.50
2019-01-05T22:19:13.589Z,56.90
2019-01-05T22:21:35.076Z,57.10
2019-01-05T22:23:55.229Z,57.10
2019-01-05T22:26:25.425Z,57.20
2019-01-05T22:28:45.500Z,57.10
2019-01-05T22:31:06.915Z,57.30
2019-01-05T22:33:27.041Z,57.20
2019-01-05T22:35:47.237Z,57.20
2019-01-05T22:38:08.789Z,57.30
2019-01-05T22:40:28.493Z,57.50
2019-01-05T22:42:58.810Z,57.60
2019-01-05T22:45:20.254Z,57.90
2019-01-05T22:47:40.470Z,58.10
2019-01-05T22:49:55.664Z,58.30
2019-01-05T22:52:18.436Z,58.40
2019-01-05T22:54:42.495Z,58.20
2019-01-05T22:57:03.943Z,57.80
2019-01-05T22:59:28.335Z,57.90
2019-01-05T23:01:45.447Z,57.90
2019-01-05T23:04:05.697Z,58.00
2019-01-05T23:06:25.897Z,58.10
2019-01-05T23:08:53.350Z,58.30
2019-01-05T23:11:20.617Z,58.10
2019-01-05T23:13:40.645Z,58.10
2019-01-05T23:15:55.957Z,58.40
2019-01-05T23:18:15.753Z,58.40
2019-01-05T23:20:46.160Z,58.60
2019-01-05T23:23:06.020Z,58.90
2019-01-05T23:25:26.237Z,59.20
2019-01-05T23:27:46.464Z,59.60
2019-01-05T23:30:08.569Z,59.90
2019-01-05T23:32:30.148Z,60.10
2019-01-05T23:34:43.484Z,60.50
2019-01-05T23:37:03.569Z,60.60
2019-01-05T23:39:24.305Z,60.90
2019-01-05T23:41:51.784Z,61.00
2019-01-05T23:44:09.562Z,61.40
2019-01-05T23:46:30.452Z,61.30
2019-01-05T23:48:50.711Z,61.60
2019-01-05T23:51:15.524Z,61.70
2019-01-05T23:53:42.860Z,61.60
2019-01-05T23:56:06.827Z,61.60
2019-01-05T23:58:54.546Z,61.40
